Strona główna
METAR-TAF:

METAR-TAF

Lotnisko :

Port lotniczy Dakar

Dakar, Senegal

Szerokość geograficzna: 14-44N, Długość geograficzna: 017-30W, wysokość: 27 m

Aktualna obserwacja pogody

Raport powstał 41 minut temu, godzina 06:00 UTC
Wiatr 2 kt od północ
Temperatura 22°C
Wilgotność 88%
Ciśnienie 1015 hPa
Widzialność 10 km lub więcej
Przerywane chmury na wysokości 1100 ft

METAR: GOOY 010600Z 36002KT 9999 BKN011 22/20 Q1015

czas: 06:41 (06:41 UTC)

Prognoza

Raport powstał 1 godzina i 11 minut temu, godzina 05:30 UTC
Prognoza ważna od 01 godzina 06 UTC do 02 godzina 12 UTC
Wiatr 10 kt od północ
Widzialność 10 km lub więcej
Przerywane chmury na wysokości 800 ft
Stopniowe zmiany
od 01 godzina 08 UTC do 01 godzina 10 UTC

TAF: GOOY 010530Z 0106/0212 36010KT 9999 BKN008 BECMG 0108/0110 NSC

Obserwacja i prognoza pogody dla ponad 4000 lotnisk (raport METAR i TAF).

Dostępne stacje oznaczono żółtymi i czerwonymi punktami na mapie.

Najedź kursorem aby zobaczyć nazwę stacji.

Kliknij aby zobaczyć obserwacje i prognozy pogody.

Aby zmienić mapę: kliknij na zielony przycisk z czarnym krzyżykiem, aby powiększyć; na zielony przycisk z myślnikiem, aby pomniejszyć; na zielone strzałki, aby przejść do map sąsiednich.


METAR-TAF: